createdAt,value
2022-08-02T00:00:43.478Z,2.97
2022-08-02T00:03:10.434Z,3.55
2022-08-02T00:05:38.419Z,1.67
2022-08-02T00:08:07.654Z,1.20
2022-08-02T00:10:35.411Z,1.77
2022-08-02T00:13:02.335Z,2.72
2022-08-02T00:15:29.303Z,1.55
2022-08-02T00:17:56.275Z,1.23
2022-08-02T00:20:24.122Z,2.95
2022-08-02T00:22:54.239Z,1.33
2022-08-02T00:25:21.399Z,2.00
2022-08-02T00:27:48.410Z,3.58
2022-08-02T00:30:16.209Z,2.55
2022-08-02T00:32:43.144Z,1.58
2022-08-02T00:35:10.122Z,1.42
2022-08-02T00:37:41.598Z,1.58
2022-08-02T00:40:10.989Z,2.55
2022-08-02T00:42:40.082Z,1.55
2022-08-02T00:45:09.576Z,2.15
2022-08-02T00:47:36.661Z,2.50
2022-08-02T00:50:04.528Z,2.38
2022-08-02T00:52:31.576Z,1.80
2022-08-02T00:54:58.703Z,2.72
2022-08-02T00:57:29.841Z,1.45
2022-08-02T00:59:56.811Z,2.90
2022-08-02T01:02:23.976Z,2.53
2022-08-02T01:04:50.982Z,1.77
2022-08-02T01:07:18.540Z,1.58
2022-08-02T01:09:46.146Z,2.47
2022-08-02T01:12:14.519Z,1.45
2022-08-02T01:14:44.183Z,1.75
2022-08-02T01:17:32.409Z,1.40
2022-08-02T01:20:34.246Z,1.52
2022-08-02T01:23:28.250Z,2.75
2022-08-02T01:26:37.350Z,3.05
2022-08-02T01:29:34.789Z,2.65
2022-08-02T01:32:23.323Z,4.20
2022-08-02T01:35:03.594Z,2.78
2022-08-02T01:37:48.645Z,2.80
2022-08-02T01:40:27.904Z,2.60
2022-08-02T01:43:00.780Z,3.05
2022-08-02T01:45:35.366Z,2.35
2022-08-02T01:48:05.866Z,3.00
2022-08-02T01:50:37.265Z,2.33
2022-08-02T01:53:12.491Z,1.90
2022-08-02T01:55:58.422Z,2.17
2022-08-02T01:58:32.669Z,2.55
2022-08-02T02:01:04.450Z,3.80
2022-08-02T02:03:34.204Z,2.38
2022-08-02T02:06:06.113Z,3.00
2022-08-02T02:08:39.771Z,2.28
2022-08-02T02:12:09.529Z,2.97
2022-08-02T02:14:01.999Z,3.58
2022-08-02T02:16:29.177Z,3.58
2022-08-02T02:18:56.128Z,2.53
2022-08-02T02:21:23.108Z,4.70
2022-08-02T02:23:51.003Z,2.50
2022-08-02T02:26:29.525Z,2.28
2022-08-02T02:29:05.162Z,2.80
2022-08-02T02:31:38.000Z,3.63
2022-08-02T02:34:14.846Z,2.80
2022-08-02T02:36:50.262Z,2.20
2022-08-02T02:39:22.786Z,2.83
2022-08-02T02:41:53.186Z,3.00
2022-08-02T02:44:29.242Z,3.85
2022-08-02T02:46:58.203Z,4.97
2022-08-02T02:49:27.551Z,3.15
2022-08-02T02:51:57.672Z,10.65
2022-08-02T02:54:34.436Z,2.75
2022-08-02T02:57:05.390Z,2.25
2022-08-02T02:59:35.644Z,2.53
2022-08-02T03:02:04.611Z,2.83
2022-08-02T03:04:36.059Z,4.55
2022-08-02T03:07:25.227Z,2.83
2022-08-02T03:09:54.165Z,3.28
2022-08-02T03:12:28.835Z,3.40
2022-08-02T03:15:07.281Z,3.00
2022-08-02T03:17:53.468Z,2.75
2022-08-02T03:20:22.679Z,2.55
2022-08-02T03:22:50.292Z,2.15
2022-08-02T03:25:18.578Z,2.60
2022-08-02T03:27:46.169Z,3.03
2022-08-02T03:30:14.583Z,2.80
2022-08-02T03:32:46.233Z,2.97
2022-08-02T03:35:23.355Z,6.88
2022-08-02T03:37:58.819Z,3.85
2022-08-02T03:40:28.348Z,2.72
2022-08-02T03:42:55.657Z,3.50
2022-08-02T03:45:31.011Z,4.25
2022-08-02T03:48:31.875Z,3.90
2022-08-02T03:50:54.190Z,2.53
2022-08-02T03:53:23.164Z,3.83
2022-08-02T03:55:52.067Z,5.03
2022-08-02T03:58:24.513Z,3.97
2022-08-02T04:00:54.859Z,2.95
2022-08-02T04:03:22.423Z,2.80
2022-08-02T04:06:03.604Z,4.45
2022-08-02T04:08:38.750Z,2.35
2022-08-02T04:11:25.272Z,2.58
2022-08-02T04:13:56.930Z,3.35
2022-08-02T04:16:59.421Z,3.05
2022-08-02T04:19:45.671Z,3.47
2022-08-02T04:22:21.463Z,4.63
2022-08-02T04:24:57.019Z,3.78
2022-08-02T04:27:50.516Z,3.00
2022-08-02T04:30:14.209Z,4.07
2022-08-02T04:32:41.331Z,3.28
2022-08-02T04:35:19.311Z,4.40
2022-08-02T04:38:05.750Z,5.90
2022-08-02T04:40:35.121Z,4.30
2022-08-02T04:43:05.271Z,6.43
2022-08-02T04:45:33.268Z,4.45
2022-08-02T04:48:32.115Z,2.97
2022-08-02T04:51:00.708Z,3.33
2022-08-02T04:53:27.614Z,5.57
2022-08-02T04:55:54.530Z,4.80
2022-08-02T04:58:39.955Z,4.15
2022-08-02T05:01:09.540Z,5.22
2022-08-02T05:03:36.511Z,3.88
2022-08-02T05:06:03.569Z,3.95
2022-08-02T05:08:52.806Z,3.50
2022-08-02T05:11:34.532Z,3.70
2022-08-02T05:14:08.792Z,3.38
2022-08-02T05:16:35.772Z,4.63
2022-08-02T05:19:03.260Z,4.28
2022-08-02T05:21:31.976Z,4.85
2022-08-02T05:23:58.973Z,4.18
2022-08-02T05:26:26.734Z,4.13
2022-08-02T05:28:53.582Z,3.90
2022-08-02T05:31:21.309Z,4.22
2022-08-02T05:33:48.218Z,4.45
2022-08-02T05:36:16.137Z,6.63
2022-08-02T05:38:49.847Z,5.07
2022-08-02T05:41:19.318Z,4.15
2022-08-02T05:43:47.695Z,5.50
2022-08-02T05:46:14.604Z,6.57
2022-08-02T05:48:44.810Z,7.20
2022-08-02T05:51:21.656Z,4.95
2022-08-02T05:54:33.060Z,6.63
2022-08-02T05:57:07.065Z,4.32
2022-08-02T06:00:06.070Z,4.05
2022-08-02T06:03:07.502Z,5.45
2022-08-02T06:05:40.670Z,8.20
2022-08-02T06:08:10.241Z,4.75
2022-08-02T06:10:40.451Z,5.70
2022-08-02T06:13:14.705Z,3.70
2022-08-02T06:15:53.377Z,5.60
2022-08-02T06:18:28.517Z,4.05
2022-08-02T06:22:42.028Z,3.70
2022-08-02T06:23:57.910Z,4.65
2022-08-02T06:26:29.975Z,3.42
2022-08-02T06:28:58.598Z,4.47
2022-08-02T06:31:25.889Z,5.28
2022-08-02T06:33:53.879Z,5.65
2022-08-02T06:36:46.683Z,4.10
2022-08-02T06:39:44.297Z,3.65
2022-08-02T06:42:27.230Z,3.78
2022-08-02T06:44:58.251Z,4.55
2022-08-02T06:47:26.480Z,5.10
2022-08-02T06:49:54.874Z,5.00
2022-08-02T06:52:34.030Z,4.07
2022-08-02T06:55:04.527Z,5.13
2022-08-02T06:57:33.595Z,7.82
2022-08-02T07:00:06.896Z,5.88
2022-08-02T07:02:36.519Z,5.38
2022-08-02T07:05:04.722Z,5.57
2022-08-02T07:07:32.071Z,6.25
2022-08-02T07:10:01.867Z,6.45
2022-08-02T07:12:33.307Z,7.32
2022-08-02T07:15:03.498Z,7.68
2022-08-02T07:17:31.517Z,7.20
2022-08-02T07:19:59.199Z,5.97
2022-08-02T07:22:28.161Z,5.13
2022-08-02T07:24:58.799Z,7.55
2022-08-02T07:27:28.091Z,5.95
2022-08-02T07:29:56.050Z,5.22
2022-08-02T07:32:27.740Z,6.55
2022-08-02T07:34:57.048Z,4.60
2022-08-02T07:37:54.028Z,5.35
2022-08-02T07:40:20.004Z,3.67
2022-08-02T07:42:52.013Z,3.45
2022-08-02T07:45:24.151Z,3.03
2022-08-02T07:47:52.656Z,2.97
2022-08-02T07:50:21.453Z,3.58
2022-08-02T07:52:49.403Z,3.78
2022-08-02T07:55:21.772Z,3.08
2022-08-02T07:57:52.713Z,2.97
2022-08-02T08:00:21.689Z,4.55
2022-08-02T08:02:49.519Z,4.50
2022-08-02T08:05:21.174Z,8.30
2022-08-02T08:07:48.074Z,1.77
2022-08-02T08:10:15.052Z,1.67
2022-08-02T08:12:41.959Z,2.30
2022-08-02T08:15:09.781Z,1.48
2022-08-02T08:17:38.576Z,2.17
2022-08-02T08:20:06.643Z,1.33
2022-08-02T08:22:33.587Z,1.92
2022-08-02T08:25:00.431Z,1.95
2022-08-02T08:27:28.205Z,1.60
2022-08-02T08:30:20.384Z,2.03
2022-08-02T08:33:13.901Z,2.65
2022-08-02T08:35:40.969Z,3.15
2022-08-02T08:38:08.573Z,3.50
2022-08-02T08:40:37.123Z,1.77
2022-08-02T08:43:06.036Z,1.80
2022-08-02T08:45:33.177Z,1.65
2022-08-02T08:48:08.439Z,3.00
2022-08-02T08:50:38.904Z,3.28
2022-08-02T08:53:12.329Z,3.30
2022-08-02T08:55:41.154Z,2.70
2022-08-02T08:58:08.181Z,1.90
2022-08-02T09:00:36.733Z,3.30
2022-08-02T09:03:08.615Z,2.10
2022-08-02T09:05:38.542Z,1.92
2022-08-02T09:08:06.525Z,1.77
2022-08-02T09:10:46.257Z,1.75
2022-08-02T09:13:39.019Z,2.47
2022-08-02T09:16:14.395Z,1.45
2022-08-02T09:18:47.334Z,3.30
2022-08-02T09:21:17.544Z,2.75
2022-08-02T09:23:51.283Z,2.17
2022-08-02T09:26:23.765Z,1.73
2022-08-02T09:28:59.359Z,1.73
2022-08-02T09:31:26.952Z,2.63
2022-08-02T09:33:59.581Z,1.65
2022-08-02T09:36:38.146Z,1.50
2022-08-02T09:39:10.562Z,3.17
2022-08-02T09:41:42.631Z,3.17
2022-08-02T09:44:16.477Z,2.03
2022-08-02T09:46:46.383Z,1.85
2022-08-02T09:49:16.984Z,1.80
2022-08-02T09:51:47.352Z,1.65
2022-08-02T09:54:28.764Z,2.10
2022-08-02T09:56:59.905Z,2.65
2022-08-02T09:59:29.103Z,4.43
2022-08-02T10:01:58.964Z,2.25
2022-08-02T10:04:34.523Z,1.45
2022-08-02T10:07:19.903Z,1.45
2022-08-02T10:09:49.405Z,1.30
2022-08-02T10:12:16.622Z,2.22
2022-08-02T10:14:44.927Z,1.40
2022-08-02T10:17:12.511Z,2.88
2022-08-02T10:20:01.800Z,3.88
2022-08-02T10:22:28.532Z,2.45
2022-08-02T10:24:55.548Z,2.70
2022-08-02T10:27:25.781Z,1.10
2022-08-02T10:29:57.698Z,2.65
2022-08-02T10:32:33.349Z,1.48
2022-08-02T10:35:19.833Z,1.48
2022-08-02T10:38:03.237Z,1.70
2022-08-02T10:40:52.613Z,2.85
2022-08-02T10:43:31.443Z,1.30
2022-08-02T10:46:33.356Z,5.78
2022-08-02T10:49:39.357Z,1.63
2022-08-02T10:52:07.225Z,1.40
2022-08-02T10:54:47.390Z,1.77
2022-08-02T10:57:21.980Z,1.30
2022-08-02T11:00:12.660Z,1.42
2022-08-02T11:02:47.733Z,3.28
2022-08-02T11:05:43.021Z,1.33
2022-08-02T11:08:22.631Z,0.90
2022-08-02T11:10:49.702Z,3.40
2022-08-02T11:13:19.634Z,2.10
2022-08-02T11:15:55.241Z,1.10
2022-08-02T11:18:43.847Z,1.50
2022-08-02T11:21:35.097Z,2.35
2022-08-02T11:24:27.717Z,1.85
2022-08-02T11:26:56.495Z,1.35
2022-08-02T11:29:38.320Z,1.98
2022-08-02T11:32:08.208Z,2.20
2022-08-02T11:34:37.598Z,2.33
2022-08-02T11:37:05.627Z,1.20
2022-08-02T11:39:32.724Z,1.63
2022-08-02T11:42:01.297Z,2.47
2022-08-02T11:44:39.141Z,1.98
2022-08-02T11:47:07.479Z,1.17
2022-08-02T11:49:34.596Z,1.90
2022-08-02T11:52:06.399Z,1.90
2022-08-02T11:54:37.049Z,1.75
2022-08-02T11:57:21.895Z,8.18
2022-08-02T11:59:53.959Z,3.00
2022-08-02T12:02:32.852Z,1.17
2022-08-02T12:05:05.493Z,2.47
2022-08-02T12:07:45.553Z,1.20
2022-08-02T12:10:24.469Z,1.50
2022-08-02T12:12:54.236Z,1.42
2022-08-02T12:15:37.696Z,1.88
2022-08-02T12:18:30.018Z,1.10
2022-08-02T12:20:58.928Z,1.23
2022-08-02T12:23:26.474Z,1.10
2022-08-02T12:26:19.947Z,1.00
2022-08-02T12:28:46.878Z,0.88
2022-08-02T12:31:14.295Z,1.58
2022-08-02T12:33:48.608Z,3.05
2022-08-02T12:36:19.011Z,1.13
2022-08-02T12:38:54.581Z,1.98
2022-08-02T12:41:31.842Z,2.17
2022-08-02T12:44:00.497Z,0.80
2022-08-02T12:46:27.742Z,1.48
2022-08-02T12:49:18.068Z,1.10
2022-08-02T12:51:56.670Z,1.02
2022-08-02T12:54:40.321Z,0.90
2022-08-02T12:57:15.860Z,2.50
2022-08-02T12:59:50.697Z,1.17
2022-08-02T13:02:19.546Z,2.72
2022-08-02T13:04:50.037Z,2.83
2022-08-02T13:07:18.983Z,3.13
2022-08-02T13:09:47.570Z,1.45
2022-08-02T13:12:15.255Z,1.35
2022-08-02T13:14:42.873Z,1.05
2022-08-02T13:17:11.750Z,2.15
2022-08-02T13:19:38.961Z,1.02
2022-08-02T13:22:06.416Z,1.10
2022-08-02T13:24:39.942Z,1.73
2022-08-02T13:27:22.626Z,2.08
2022-08-02T13:29:51.744Z,0.85
2022-08-02T13:32:19.089Z,1.38
2022-08-02T13:34:48.999Z,0.95
2022-08-02T13:37:16.950Z,1.90
2022-08-02T13:40:00.474Z,1.40
2022-08-02T13:42:32.180Z,1.25
2022-08-02T13:44:59.233Z,1.50
2022-08-02T13:47:26.525Z,0.80
2022-08-02T13:50:04.194Z,1.83
2022-08-02T13:52:31.167Z,1.00
2022-08-02T13:54:58.326Z,1.20
2022-08-02T13:57:25.633Z,1.20
2022-08-02T13:59:56.730Z,0.95
2022-08-02T14:02:30.834Z,1.15
2022-08-02T14:04:57.780Z,1.05
2022-08-02T14:07:24.735Z,1.85
2022-08-02T14:09:51.671Z,1.10
2022-08-02T14:12:19.461Z,4.22
2022-08-02T14:14:46.439Z,1.92
2022-08-02T14:17:13.686Z,0.75
2022-08-02T14:19:40.650Z,0.88
2022-08-02T14:22:12.056Z,4.10
2022-08-02T14:24:41.460Z,1.40
2022-08-02T14:27:08.692Z,1.02
2022-08-02T14:29:35.771Z,1.75
2022-08-02T14:32:03.193Z,1.45
2022-08-02T14:34:30.107Z,0.82
2022-08-02T14:36:57.322Z,1.23
2022-08-02T14:39:24.367Z,1.25
2022-08-02T14:41:58.950Z,2.47
2022-08-02T14:44:30.786Z,0.90
2022-08-02T14:46:58.129Z,1.42
2022-08-02T14:49:26.753Z,2.15
2022-08-02T14:51:57.926Z,1.23
2022-08-02T14:54:31.359Z,0.98
2022-08-02T14:57:01.785Z,0.90
2022-08-02T14:59:30.535Z,0.93
2022-08-02T15:01:58.710Z,1.73
2022-08-02T15:04:26.871Z,4.10
2022-08-02T15:06:54.514Z,1.85
2022-08-02T15:09:22.189Z,1.17
2022-08-02T15:11:49.686Z,1.10
2022-08-02T15:14:25.746Z,1.17
2022-08-02T15:16:58.729Z,0.90
2022-08-02T15:19:56.511Z,1.13
2022-08-02T15:22:19.424Z,1.83
2022-08-02T15:24:48.183Z,1.17
2022-08-02T15:27:16.019Z,1.85
2022-08-02T15:29:44.860Z,1.38
2022-08-02T15:32:13.267Z,4.38
2022-08-02T15:34:40.579Z,3.65
2022-08-02T15:37:07.699Z,1.25
2022-08-02T15:39:34.682Z,2.30
2022-08-02T15:42:01.986Z,1.83
2022-08-02T15:44:29.322Z,1.77
2022-08-02T15:46:57.864Z,1.67
2022-08-02T15:49:25.799Z,1.35
2022-08-02T15:51:54.107Z,1.77
2022-08-02T15:54:21.187Z,2.03
2022-08-02T15:56:48.622Z,1.30
2022-08-02T15:59:15.870Z,1.63
2022-08-02T16:01:47.205Z,1.15
2022-08-02T16:04:16.773Z,1.30
2022-08-02T16:06:44.848Z,1.33
2022-08-02T16:09:11.997Z,4.50
2022-08-02T16:11:40.154Z,2.90
2022-08-02T16:14:07.258Z,1.40
2022-08-02T16:16:37.013Z,2.67
2022-08-02T16:19:46.099Z,3.80
2022-08-02T16:21:56.235Z,1.77
2022-08-02T16:24:23.637Z,1.45
2022-08-02T16:26:50.661Z,2.90
2022-08-02T16:29:19.185Z,3.03
2022-08-02T16:31:50.061Z,2.63
2022-08-02T16:34:17.504Z,2.95
2022-08-02T16:36:45.131Z,1.50
2022-08-02T16:39:12.630Z,2.95
2022-08-02T16:41:50.966Z,2.70
2022-08-02T16:44:27.694Z,1.50
2022-08-02T16:47:07.914Z,1.80
2022-08-02T16:50:05.060Z,0.90
2022-08-02T16:52:22.590Z,1.48
2022-08-02T16:54:50.188Z,1.27
2022-08-02T16:57:19.818Z,1.23
2022-08-02T16:59:57.414Z,2.05
2022-08-02T17:02:26.505Z,1.77
2022-08-02T17:04:54.691Z,1.08
2022-08-02T17:08:15.792Z,2.53
2022-08-02T17:10:09.454Z,1.38
2022-08-02T17:12:38.751Z,1.65
2022-08-02T17:15:47.032Z,1.75
2022-08-02T17:17:54.911Z,3.50
2022-08-02T17:20:24.283Z,2.15
2022-08-02T17:22:52.519Z,1.35
2022-08-02T17:25:20.512Z,2.67
2022-08-02T17:27:55.565Z,1.58
2022-08-02T17:30:26.746Z,1.33
2022-08-02T17:32:57.799Z,2.67
2022-08-02T17:35:43.518Z,2.00
2022-08-02T17:38:17.899Z,3.67
2022-08-02T17:40:45.366Z,1.67
2022-08-02T17:43:14.230Z,1.75
2022-08-02T17:46:00.580Z,3.22
2022-08-02T17:48:48.991Z,1.23
2022-08-02T17:52:15.944Z,1.35
2022-08-02T17:54:03.080Z,3.35
2022-08-02T17:56:30.073Z,1.67
2022-08-02T17:59:09.146Z,1.73
2022-08-02T18:01:52.477Z,2.00
2022-08-02T18:04:26.921Z,2.15
2022-08-02T18:06:59.875Z,1.83
2022-08-02T18:09:32.232Z,2.67
2022-08-02T18:11:59.234Z,2.65
2022-08-02T18:14:30.387Z,1.77
2022-08-02T18:16:57.488Z,1.85
2022-08-02T18:19:33.218Z,1.73
2022-08-02T18:22:10.326Z,6.97
2022-08-02T18:24:38.156Z,1.88
2022-08-02T18:27:05.208Z,4.57
2022-08-02T18:29:38.493Z,8.10
2022-08-02T18:32:11.347Z,3.40
2022-08-02T18:34:39.997Z,2.15
2022-08-02T18:37:07.015Z,1.63
2022-08-02T18:39:35.102Z,3.58
2022-08-02T18:42:05.653Z,4.05
2022-08-02T18:44:32.613Z,2.53
2022-08-02T18:47:00.508Z,2.17
2022-08-02T18:49:46.054Z,1.73
2022-08-02T18:52:15.050Z,2.05
2022-08-02T18:54:42.382Z,1.88
2022-08-02T18:58:16.678Z,4.10
2022-08-02T18:59:57.725Z,2.10
2022-08-02T19:02:24.826Z,2.60
2022-08-02T19:04:52.281Z,1.05
2022-08-02T19:07:22.417Z,4.05
2022-08-02T19:09:49.807Z,1.52
2022-08-02T19:12:27.836Z,1.45
2022-08-02T19:14:56.146Z,2.42
2022-08-02T19:17:55.043Z,1.33
2022-08-02T19:20:11.555Z,2.03
2022-08-02T19:22:50.140Z,1.23
2022-08-02T19:25:27.995Z,3.65
2022-08-02T19:27:55.378Z,4.47
2022-08-02T19:30:25.611Z,2.70
2022-08-02T19:32:58.622Z,2.40
2022-08-02T19:35:34.444Z,1.80
2022-08-02T19:38:11.656Z,4.95
2022-08-02T19:40:43.759Z,2.90
2022-08-02T19:44:27.115Z,3.60
2022-08-02T19:45:58.691Z,3.60
2022-08-02T19:48:28.149Z,3.08
2022-08-02T19:51:00.855Z,2.38
2022-08-02T19:53:47.620Z,3.55
2022-08-02T19:56:20.119Z,2.35
2022-08-02T19:58:53.904Z,2.58
2022-08-02T20:01:28.174Z,2.08
2022-08-02T20:04:05.150Z,4.30
2022-08-02T20:06:32.076Z,2.90
2022-08-02T20:09:01.237Z,1.90
2022-08-02T20:11:34.450Z,2.35
2022-08-02T20:14:04.116Z,1.63
2022-08-02T20:16:33.075Z,3.33
2022-08-02T20:19:01.543Z,2.55
2022-08-02T20:21:36.157Z,2.55
2022-08-02T20:24:09.962Z,3.53
2022-08-02T20:26:47.130Z,2.80
2022-08-02T20:29:17.658Z,6.35
2022-08-02T20:32:04.964Z,3.03
2022-08-02T20:34:31.995Z,3.67
2022-08-02T20:37:56.154Z,4.63
2022-08-02T20:39:48.148Z,3.83
2022-08-02T20:42:23.485Z,4.05
2022-08-02T20:45:05.807Z,3.72
2022-08-02T20:47:39.805Z,3.78
2022-08-02T20:50:31.667Z,3.17
2022-08-02T20:53:04.049Z,9.38
2022-08-02T20:55:32.171Z,5.55
2022-08-02T20:58:04.423Z,4.15
2022-08-02T21:00:32.306Z,8.43
2022-08-02T21:03:01.022Z,5.32
2022-08-02T21:05:53.945Z,5.82
2022-08-02T21:08:20.574Z,6.90
2022-08-02T21:10:52.321Z,4.80
2022-08-02T21:13:23.016Z,4.25
2022-08-02T21:15:52.094Z,3.92
2022-08-02T21:21:10.273Z,4.78
2022-08-02T21:23:38.438Z,5.63
2022-08-02T21:29:04.476Z,6.03
2022-08-02T21:31:36.153Z,3.38
2022-08-02T21:34:21.703Z,4.53
2022-08-02T21:36:52.934Z,5.40
2022-08-02T21:39:20.495Z,4.10
2022-08-02T21:41:49.699Z,5.70
2022-08-02T21:44:19.424Z,3.55
2022-08-02T21:46:48.926Z,5.57
2022-08-02T21:49:40.928Z,4.93
2022-08-02T21:52:09.243Z,7.07
2022-08-02T21:54:40.123Z,3.45
2022-08-02T21:57:15.756Z,3.45
2022-08-02T21:59:52.945Z,5.28
2022-08-02T22:02:30.742Z,3.55
2022-08-02T22:04:58.385Z,4.28
2022-08-02T22:07:25.332Z,3.75
2022-08-02T22:09:53.447Z,3.60
2022-08-02T22:12:21.951Z,7.10
2022-08-02T22:14:55.713Z,7.05
2022-08-02T22:17:51.159Z,3.47
2022-08-02T22:20:20.062Z,3.58
2022-08-02T22:22:52.571Z,3.28
2022-08-02T22:25:26.396Z,4.90
2022-08-02T22:28:39.307Z,3.25
2022-08-02T22:30:59.897Z,3.30
2022-08-02T22:33:47.367Z,3.75
2022-08-02T22:36:30.772Z,5.72
2022-08-02T22:38:58.980Z,8.32
2022-08-02T22:42:01.776Z,5.68
2022-08-02T22:44:13.244Z,4.45
2022-08-02T22:46:41.914Z,6.28
2022-08-02T22:49:08.939Z,4.43
2022-08-02T22:51:45.385Z,4.68
2022-08-02T22:54:12.277Z,7.22
2022-08-02T22:56:39.210Z,5.30
2022-08-02T22:59:02.438Z,4.30
2022-08-02T22:59:02.660Z,4.85
2022-08-02T23:01:42.822Z,3.40
2022-08-02T23:04:09.696Z,4.00
2022-08-02T23:06:36.599Z,4.45
2022-08-02T23:09:03.527Z,3.78
2022-08-02T23:11:30.399Z,4.22
2022-08-02T23:13:57.270Z,5.05
2022-08-02T23:16:42.800Z,3.92
2022-08-02T23:19:28.894Z,4.20
2022-08-02T23:22:02.772Z,4.13
2022-08-02T23:24:33.289Z,4.30
2022-08-02T23:27:01.199Z,3.47
2022-08-02T23:29:28.099Z,4.05
2022-08-02T23:31:55.249Z,6.78
2022-08-02T23:34:22.198Z,4.13
2022-08-02T23:36:49.194Z,3.47
2022-08-02T23:39:16.065Z,3.75
2022-08-02T23:41:43.077Z,2.80
2022-08-02T23:44:14.816Z,3.35
2022-08-02T23:46:47.146Z,4.78
2022-08-02T23:49:16.229Z,9.05
2022-08-02T23:51:43.564Z,3.75
2022-08-02T23:54:12.505Z,4.32
2022-08-02T23:56:40.793Z,5.28
2022-08-02T23:59:08.678Z,4.32
